sensor_id;sensor_type;location;lat;lon;timestamp;temperature;humidity
22112;DHT22;11222;50.872;4.312;2023-08-07T00:00:24;12.60;99.90
22112;DHT22;11222;50.872;4.312;2023-08-07T00:02:49;12.70;99.90
22112;DHT22;11222;50.872;4.312;2023-08-07T00:05:15;12.70;99.90
22112;DHT22;11222;50.872;4.312;2023-08-07T00:07:44;12.70;99.90
22112;DHT22;11222;50.872;4.312;2023-08-07T00:10:10;12.80;99.90
22112;DHT22;11222;50.872;4.312;2023-08-07T00:12:36;12.90;99.90
22112;DHT22;11222;50.872;4.312;2023-08-07T00:15:02;12.90;99.90
22112;DHT22;11222;50.872;4.312;2023-08-07T00:17:28;12.90;99.90
22112;DHT22;11222;50.872;4.312;2023-08-07T00:19:54;12.80;99.90
22112;DHT22;11222;50.872;4.312;2023-08-07T00:22:20;12.90;99.90
22112;DHT22;11222;50.872;4.312;2023-08-07T00:24:46;12.80;99.90
22112;DHT22;11222;50.872;4.312;2023-08-07T00:27:12;12.80;99.90
22112;DHT22;11222;50.872;4.312;2023-08-07T00:29:38;12.80;99.90
22112;DHT22;11222;50.872;4.312;2023-08-07T00:32:04;12.90;99.90
22112;DHT22;11222;50.872;4.312;2023-08-07T00:34:30;12.90;99.90
22112;DHT22;11222;50.872;4.312;2023-08-07T00:36:55;12.90;99.90
22112;DHT22;11222;50.872;4.312;2023-08-07T00:39:21;12.90;99.90
22112;DHT22;11222;50.872;4.312;2023-08-07T00:41:47;12.90;99.90
22112;DHT22;11222;50.872;4.312;2023-08-07T00:44:13;12.90;99.90
22112;DHT22;11222;50.872;4.312;2023-08-07T00:46:39;12.90;99.90
22112;DHT22;11222;50.872;4.312;2023-08-07T00:49:06;12.80;99.90
22112;DHT22;11222;50.872;4.312;2023-08-07T00:51:32;12.80;99.90
22112;DHT22;11222;50.872;4.312;2023-08-07T00:53:59;12.80;99.90
22112;DHT22;11222;50.872;4.312;2023-08-07T00:56:28;12.80;99.90
22112;DHT22;11222;50.872;4.312;2023-08-07T00:58:54;12.80;99.90
22112;DHT22;11222;50.872;4.312;2023-08-07T01:01:19;12.80;99.90
22112;DHT22;11222;50.872;4.312;2023-08-07T01:03:45;12.80;99.90
22112;DHT22;11222;50.872;4.312;2023-08-07T01:06:11;12.80;99.90
22112;DHT22;11222;50.872;4.312;2023-08-07T01:08:37;12.80;99.90
22112;DHT22;11222;50.872;4.312;2023-08-07T01:13:56;12.60;99.90
22112;DHT22;11222;50.872;4.312;2023-08-07T01:16:37;12.60;99.90
22112;DHT22;11222;50.872;4.312;2023-08-07T01:19:11;12.50;99.90
22112;DHT22;11222;50.872;4.312;2023-08-07T01:21:39;12.50;99.90
22112;DHT22;11222;50.872;4.312;2023-08-07T01:24:05;12.40;99.90
22112;DHT22;11222;50.872;4.312;2023-08-07T01:26:32;12.40;99.90
22112;DHT22;11222;50.872;4.312;2023-08-07T01:29:14;12.40;99.90
22112;DHT22;11222;50.872;4.312;2023-08-07T01:31:43;12.40;99.90
22112;DHT22;11222;50.872;4.312;2023-08-07T01:34:11;12.40;99.90
22112;DHT22;11222;50.872;4.312;2023-08-07T01:36:38;12.40;99.90
22112;DHT22;11222;50.872;4.312;2023-08-07T01:39:04;12.40;99.90
22112;DHT22;11222;50.872;4.312;2023-08-07T01:41:32;12.40;99.90
22112;DHT22;11222;50.872;4.312;2023-08-07T01:43:59;12.50;99.90
22112;DHT22;11222;50.872;4.312;2023-08-07T01:46:25;12.50;99.90
22112;DHT22;11222;50.872;4.312;2023-08-07T01:48:50;12.40;99.90
22112;DHT22;11222;50.872;4.312;2023-08-07T01:51:16;12.40;99.90
22112;DHT22;11222;50.872;4.312;2023-08-07T01:53:41;12.40;99.90
22112;DHT22;11222;50.872;4.312;2023-08-07T01:56:07;12.40;99.90
22112;DHT22;11222;50.872;4.312;2023-08-07T01:58:33;12.40;99.90
22112;DHT22;11222;50.872;4.312;2023-08-07T02:00:58;12.40;99.90
22112;DHT22;11222;50.872;4.312;2023-08-07T02:03:24;12.40;99.90
22112;DHT22;11222;50.872;4.312;2023-08-07T02:05:50;12.30;99.90
22112;DHT22;11222;50.872;4.312;2023-08-07T02:08:16;12.30;99.90
22112;DHT22;11222;50.872;4.312;2023-08-07T02:10:42;12.30;99.90
22112;DHT22;11222;50.872;4.312;2023-08-07T02:13:08;12.30;99.90
22112;DHT22;11222;50.872;4.312;2023-08-07T02:15:33;12.30;99.90
22112;DHT22;11222;50.872;4.312;2023-08-07T02:17:59;12.30;99.90
22112;DHT22;11222;50.872;4.312;2023-08-07T02:20:25;12.30;99.90
22112;DHT22;11222;50.872;4.312;2023-08-07T02:22:50;12.30;99.90
22112;DHT22;11222;50.872;4.312;2023-08-07T02:25:16;12.20;99.90
22112;DHT22;11222;50.872;4.312;2023-08-07T02:27:41;12.10;99.90
22112;DHT22;11222;50.872;4.312;2023-08-07T02:30:07;12.10;99.90
22112;DHT22;11222;50.872;4.312;2023-08-07T02:32:33;12.00;99.90
22112;DHT22;11222;50.872;4.312;2023-08-07T02:34:59;12.00;99.90
22112;DHT22;11222;50.872;4.312;2023-08-07T02:37:24;12.00;99.90
22112;DHT22;11222;50.872;4.312;2023-08-07T02:39:50;12.00;99.90
22112;DHT22;11222;50.872;4.312;2023-08-07T02:42:16;12.00;99.90
22112;DHT22;11222;50.872;4.312;2023-08-07T02:44:41;12.00;99.90
22112;DHT22;11222;50.872;4.312;2023-08-07T02:47:07;12.10;99.90
22112;DHT22;11222;50.872;4.312;2023-08-07T02:49:32;12.10;99.90
22112;DHT22;11222;50.872;4.312;2023-08-07T02:51:58;12.10;99.90
22112;DHT22;11222;50.872;4.312;2023-08-07T02:54:24;12.20;99.90
22112;DHT22;11222;50.872;4.312;2023-08-07T02:56:49;12.20;99.90
22112;DHT22;11222;50.872;4.312;2023-08-07T02:59:16;12.20;99.90
22112;DHT22;11222;50.872;4.312;2023-08-07T03:01:43;12.20;99.90
22112;DHT22;11222;50.872;4.312;2023-08-07T03:04:09;12.30;99.90
22112;DHT22;11222;50.872;4.312;2023-08-07T03:06:34;12.20;99.90
22112;DHT22;11222;50.872;4.312;2023-08-07T03:09:00;12.20;99.90
22112;DHT22;11222;50.872;4.312;2023-08-07T03:11:26;12.20;99.90
22112;DHT22;11222;50.872;4.312;2023-08-07T03:13:51;12.20;99.90
22112;DHT22;11222;50.872;4.312;2023-08-07T03:16:17;12.20;99.90
22112;DHT22;11222;50.872;4.312;2023-08-07T03:18:43;12.20;99.90
22112;DHT22;11222;50.872;4.312;2023-08-07T03:21:08;12.10;99.90
22112;DHT22;11222;50.872;4.312;2023-08-07T03:23:34;12.10;99.90
22112;DHT22;11222;50.872;4.312;2023-08-07T03:26:18;12.10;99.90
22112;DHT22;11222;50.872;4.312;2023-08-07T03:28:43;12.10;99.90
22112;DHT22;11222;50.872;4.312;2023-08-07T03:31:11;12.00;99.90
22112;DHT22;11222;50.872;4.312;2023-08-07T03:33:37;12.00;99.90
22112;DHT22;11222;50.872;4.312;2023-08-07T03:36:02;12.00;99.90
22112;DHT22;11222;50.872;4.312;2023-08-07T03:38:28;12.00;99.90
22112;DHT22;11222;50.872;4.312;2023-08-07T03:40:54;12.00;99.90
22112;DHT22;11222;50.872;4.312;2023-08-07T03:43:19;12.00;99.90
22112;DHT22;11222;50.872;4.312;2023-08-07T03:45:45;12.00;99.90
22112;DHT22;11222;50.872;4.312;2023-08-07T03:48:11;12.10;99.90
22112;DHT22;11222;50.872;4.312;2023-08-07T03:50:37;12.20;99.90
22112;DHT22;11222;50.872;4.312;2023-08-07T03:53:03;12.20;99.90
22112;DHT22;11222;50.872;4.312;2023-08-07T03:55:30;12.20;99.90
22112;DHT22;11222;50.872;4.312;2023-08-07T03:57:56;12.20;99.90
22112;DHT22;11222;50.872;4.312;2023-08-07T04:00:21;12.20;99.90
22112;DHT22;11222;50.872;4.312;2023-08-07T04:02:47;12.20;99.90
22112;DHT22;11222;50.872;4.312;2023-08-07T04:05:13;12.20;99.90
22112;DHT22;11222;50.872;4.312;2023-08-07T04:07:38;12.10;99.90
22112;DHT22;11222;50.872;4.312;2023-08-07T04:10:04;12.10;99.90
22112;DHT22;11222;50.872;4.312;2023-08-07T04:12:30;12.10;99.90
22112;DHT22;11222;50.872;4.312;2023-08-07T04:14:56;12.10;99.90
22112;DHT22;11222;50.872;4.312;2023-08-07T04:17:21;12.00;99.90
22112;DHT22;11222;50.872;4.312;2023-08-07T04:19:47;12.10;99.90
22112;DHT22;11222;50.872;4.312;2023-08-07T04:22:12;12.00;99.90
22112;DHT22;11222;50.872;4.312;2023-08-07T04:24:38;12.00;99.90
22112;DHT22;11222;50.872;4.312;2023-08-07T04:27:04;12.00;99.90
22112;DHT22;11222;50.872;4.312;2023-08-07T04:29:30;12.00;99.90
22112;DHT22;11222;50.872;4.312;2023-08-07T04:31:55;12.00;99.90
22112;DHT22;11222;50.872;4.312;2023-08-07T04:34:21;12.00;99.90
22112;DHT22;11222;50.872;4.312;2023-08-07T04:36:46;12.00;99.90
22112;DHT22;11222;50.872;4.312;2023-08-07T04:39:12;12.00;99.90
22112;DHT22;11222;50.872;4.312;2023-08-07T04:41:38;12.00;99.90
22112;DHT22;11222;50.872;4.312;2023-08-07T04:44:04;12.00;99.90
22112;DHT22;11222;50.872;4.312;2023-08-07T04:46:30;12.00;99.90
22112;DHT22;11222;50.872;4.312;2023-08-07T04:48:56;11.90;99.90
22112;DHT22;11222;50.872;4.312;2023-08-07T04:51:22;11.90;99.90
22112;DHT22;11222;50.872;4.312;2023-08-07T04:53:48;11.90;99.90
22112;DHT22;11222;50.872;4.312;2023-08-07T04:56:16;11.90;99.90
22112;DHT22;11222;50.872;4.312;2023-08-07T04:58:42;11.90;99.90
22112;DHT22;11222;50.872;4.312;2023-08-07T05:01:08;12.00;99.90
22112;DHT22;11222;50.872;4.312;2023-08-07T05:03:34;12.00;99.90
22112;DHT22;11222;50.872;4.312;2023-08-07T05:06:00;12.00;99.90
22112;DHT22;11222;50.872;4.312;2023-08-07T05:08:27;12.00;99.90
22112;DHT22;11222;50.872;4.312;2023-08-07T05:10:52;12.00;99.90
22112;DHT22;11222;50.872;4.312;2023-08-07T05:13:18;12.10;99.90
22112;DHT22;11222;50.872;4.312;2023-08-07T05:15:47;12.10;99.90
22112;DHT22;11222;50.872;4.312;2023-08-07T05:18:13;12.10;99.90
22112;DHT22;11222;50.872;4.312;2023-08-07T05:20:38;12.20;99.90
22112;DHT22;11222;50.872;4.312;2023-08-07T05:23:04;12.20;99.90
22112;DHT22;11222;50.872;4.312;2023-08-07T05:25:30;12.30;99.90
22112;DHT22;11222;50.872;4.312;2023-08-07T05:27:55;12.40;99.90
22112;DHT22;11222;50.872;4.312;2023-08-07T05:30:21;12.40;99.90
22112;DHT22;11222;50.872;4.312;2023-08-07T05:32:47;12.50;99.90
22112;DHT22;11222;50.872;4.312;2023-08-07T05:35:13;12.50;99.90
22112;DHT22;11222;50.872;4.312;2023-08-07T05:37:39;12.60;99.90
22112;DHT22;11222;50.872;4.312;2023-08-07T05:40:06;12.60;99.90
22112;DHT22;11222;50.872;4.312;2023-08-07T05:42:32;12.70;99.90
22112;DHT22;11222;50.872;4.312;2023-08-07T05:44:58;12.80;99.90
22112;DHT22;11222;50.872;4.312;2023-08-07T05:47:24;12.80;99.90
22112;DHT22;11222;50.872;4.312;2023-08-07T05:49:50;12.80;99.90
22112;DHT22;11222;50.872;4.312;2023-08-07T05:52:16;12.90;99.90
22112;DHT22;11222;50.872;4.312;2023-08-07T05:54:42;12.90;99.90
22112;DHT22;11222;50.872;4.312;2023-08-07T05:57:08;13.00;99.90
22112;DHT22;11222;50.872;4.312;2023-08-07T05:59:33;13.00;99.90
22112;DHT22;11222;50.872;4.312;2023-08-07T06:02:00;13.10;99.90
22112;DHT22;11222;50.872;4.312;2023-08-07T06:04:25;13.10;99.90
22112;DHT22;11222;50.872;4.312;2023-08-07T06:06:51;13.20;99.90
22112;DHT22;11222;50.872;4.312;2023-08-07T06:09:17;13.40;99.90
22112;DHT22;11222;50.872;4.312;2023-08-07T06:11:43;13.40;99.90
22112;DHT22;11222;50.872;4.312;2023-08-07T06:14:09;13.50;99.90
22112;DHT22;11222;50.872;4.312;2023-08-07T06:16:34;13.50;99.90
22112;DHT22;11222;50.872;4.312;2023-08-07T06:19:00;13.60;99.90
22112;DHT22;11222;50.872;4.312;2023-08-07T06:21:26;13.70;99.90
22112;DHT22;11222;50.872;4.312;2023-08-07T06:23:54;13.80;99.90
22112;DHT22;11222;50.872;4.312;2023-08-07T06:26:19;13.80;99.90
22112;DHT22;11222;50.872;4.312;2023-08-07T06:28:45;13.90;99.90
22112;DHT22;11222;50.872;4.312;2023-08-07T06:31:11;14.00;99.90
22112;DHT22;11222;50.872;4.312;2023-08-07T06:33:37;14.10;99.90
22112;DHT22;11222;50.872;4.312;2023-08-07T06:36:04;14.10;99.90
22112;DHT22;11222;50.872;4.312;2023-08-07T06:38:30;14.30;99.90
22112;DHT22;11222;50.872;4.312;2023-08-07T06:40:56;14.40;99.90
22112;DHT22;11222;50.872;4.312;2023-08-07T06:43:21;14.40;99.90
22112;DHT22;11222;50.872;4.312;2023-08-07T06:45:49;14.50;99.90
22112;DHT22;11222;50.872;4.312;2023-08-07T06:48:15;14.60;99.90
22112;DHT22;11222;50.872;4.312;2023-08-07T06:50:41;14.70;99.90
22112;DHT22;11222;50.872;4.312;2023-08-07T06:53:07;14.70;99.90
22112;DHT22;11222;50.872;4.312;2023-08-07T06:55:32;14.80;99.90
22112;DHT22;11222;50.872;4.312;2023-08-07T06:57:59;14.80;99.90
22112;DHT22;11222;50.872;4.312;2023-08-07T07:00:25;14.90;99.90
22112;DHT22;11222;50.872;4.312;2023-08-07T07:02:50;15.00;99.90
22112;DHT22;11222;50.872;4.312;2023-08-07T07:05:16;15.10;99.90
22112;DHT22;11222;50.872;4.312;2023-08-07T07:07:41;15.20;99.90
22112;DHT22;11222;50.872;4.312;2023-08-07T07:10:07;15.20;99.90
22112;DHT22;11222;50.872;4.312;2023-08-07T07:12:33;15.30;99.90
22112;DHT22;11222;50.872;4.312;2023-08-07T07:14:59;15.40;99.90
22112;DHT22;11222;50.872;4.312;2023-08-07T07:17:24;15.50;99.90
22112;DHT22;11222;50.872;4.312;2023-08-07T07:19:50;15.60;99.90
22112;DHT22;11222;50.872;4.312;2023-08-07T07:22:16;15.70;99.90
22112;DHT22;11222;50.872;4.312;2023-08-07T07:24:41;15.80;99.90
22112;DHT22;11222;50.872;4.312;2023-08-07T07:27:07;15.90;99.90
22112;DHT22;11222;50.872;4.312;2023-08-07T07:29:33;15.90;99.90
22112;DHT22;11222;50.872;4.312;2023-08-07T07:31:58;15.90;99.90
22112;DHT22;11222;50.872;4.312;2023-08-07T07:34:24;15.90;99.90
22112;DHT22;11222;50.872;4.312;2023-08-07T07:36:50;15.90;99.90
22112;DHT22;11222;50.872;4.312;2023-08-07T07:39:16;16.00;99.90
22112;DHT22;11222;50.872;4.312;2023-08-07T07:41:42;16.00;99.90
22112;DHT22;11222;50.872;4.312;2023-08-07T07:44:08;16.00;99.90
22112;DHT22;11222;50.872;4.312;2023-08-07T07:46:34;16.00;99.90
22112;DHT22;11222;50.872;4.312;2023-08-07T07:48:59;16.10;99.90
22112;DHT22;11222;50.872;4.312;2023-08-07T07:51:26;16.10;99.90
22112;DHT22;11222;50.872;4.312;2023-08-07T07:53:52;16.30;99.90
22112;DHT22;11222;50.872;4.312;2023-08-07T07:56:18;16.40;99.90
22112;DHT22;11222;50.872;4.312;2023-08-07T07:58:43;16.70;99.90
22112;DHT22;11222;50.872;4.312;2023-08-07T08:01:09;16.80;99.90
22112;DHT22;11222;50.872;4.312;2023-08-07T08:03:35;16.80;99.90
22112;DHT22;11222;50.872;4.312;2023-08-07T08:06:00;16.80;99.90
22112;DHT22;11222;50.872;4.312;2023-08-07T08:08:26;17.10;99.90
22112;DHT22;11222;50.872;4.312;2023-08-07T08:10:52;17.30;99.90
22112;DHT22;11222;50.872;4.312;2023-08-07T08:13:18;18.70;99.90
22112;DHT22;11222;50.872;4.312;2023-08-07T08:15:45;19.40;99.90
22112;DHT22;11222;50.872;4.312;2023-08-07T08:18:11;20.00;99.90
22112;DHT22;11222;50.872;4.312;2023-08-07T08:20:37;20.40;99.90
22112;DHT22;11222;50.872;4.312;2023-08-07T08:23:04;20.90;99.90
22112;DHT22;11222;50.872;4.312;2023-08-07T08:25:30;20.90;99.90
22112;DHT22;11222;50.872;4.312;2023-08-07T08:27:56;20.50;99.90
22112;DHT22;11222;50.872;4.312;2023-08-07T08:30:22;20.80;99.90
22112;DHT22;11222;50.872;4.312;2023-08-07T08:32:48;21.30;99.90
22112;DHT22;11222;50.872;4.312;2023-08-07T08:35:13;20.50;99.90
22112;DHT22;11222;50.872;4.312;2023-08-07T08:37:39;19.70;99.90
22112;DHT22;11222;50.872;4.312;2023-08-07T08:40:06;19.90;99.90
22112;DHT22;11222;50.872;4.312;2023-08-07T08:42:33;20.90;99.90
22112;DHT22;11222;50.872;4.312;2023-08-07T08:44:59;21.30;99.90
22112;DHT22;11222;50.872;4.312;2023-08-07T08:47:26;21.90;99.90
22112;DHT22;11222;50.872;4.312;2023-08-07T08:50:23;23.10;99.90
22112;DHT22;11222;50.872;4.312;2023-08-07T08:52:51;24.40;99.90
22112;DHT22;11222;50.872;4.312;2023-08-07T08:55:20;24.20;99.90
22112;DHT22;11222;50.872;4.312;2023-08-07T08:57:46;23.70;99.90
22112;DHT22;11222;50.872;4.312;2023-08-07T09:00:14;23.40;99.90
22112;DHT22;11222;50.872;4.312;2023-08-07T09:02:45;22.90;99.90
22112;DHT22;11222;50.872;4.312;2023-08-07T09:05:10;21.80;99.90
22112;DHT22;11222;50.872;4.312;2023-08-07T09:07:37;21.60;99.90
22112;DHT22;11222;50.872;4.312;2023-08-07T09:10:03;21.30;99.90
22112;DHT22;11222;50.872;4.312;2023-08-07T09:12:32;20.00;99.90
22112;DHT22;11222;50.872;4.312;2023-08-07T09:14:58;20.00;99.90
22112;DHT22;11222;50.872;4.312;2023-08-07T09:17:29;21.30;99.90
22112;DHT22;11222;50.872;4.312;2023-08-07T09:19:55;23.20;99.90
22112;DHT22;11222;50.872;4.312;2023-08-07T09:22:21;24.70;99.90
22112;DHT22;11222;50.872;4.312;2023-08-07T09:24:47;24.80;99.90
22112;DHT22;11222;50.872;4.312;2023-08-07T09:27:13;23.10;99.90
22112;DHT22;11222;50.872;4.312;2023-08-07T09:29:43;23.20;99.90
22112;DHT22;11222;50.872;4.312;2023-08-07T09:32:12;22.70;99.90
22112;DHT22;11222;50.872;4.312;2023-08-07T09:34:39;22.00;99.90
22112;DHT22;11222;50.872;4.312;2023-08-07T09:37:05;20.90;99.90
22112;DHT22;11222;50.872;4.312;2023-08-07T09:39:31;21.40;99.90
22112;DHT22;11222;50.872;4.312;2023-08-07T09:41:57;21.50;99.90
22112;DHT22;11222;50.872;4.312;2023-08-07T09:44:23;21.10;99.90
22112;DHT22;11222;50.872;4.312;2023-08-07T09:46:48;21.30;99.90
22112;DHT22;11222;50.872;4.312;2023-08-07T09:49:14;21.80;99.90
22112;DHT22;11222;50.872;4.312;2023-08-07T09:51:46;22.00;99.90
22112;DHT22;11222;50.872;4.312;2023-08-07T09:54:13;23.40;99.90
22112;DHT22;11222;50.872;4.312;2023-08-07T09:56:43;24.40;99.00
22112;DHT22;11222;50.872;4.312;2023-08-07T09:59:09;25.70;92.90
22112;DHT22;11222;50.872;4.312;2023-08-07T10:01:37;25.80;89.90
22112;DHT22;11222;50.872;4.312;2023-08-07T10:04:05;25.30;92.20
22112;DHT22;11222;50.872;4.312;2023-08-07T10:06:30;23.20;97.70
22112;DHT22;11222;50.872;4.312;2023-08-07T10:08:56;21.10;99.90
22112;DHT22;11222;50.872;4.312;2023-08-07T10:11:23;19.90;99.90
22112;DHT22;11222;50.872;4.312;2023-08-07T10:13:49;20.80;99.90
22112;DHT22;11222;50.872;4.312;2023-08-07T10:16:15;22.50;99.90
22112;DHT22;11222;50.872;4.312;2023-08-07T10:18:41;23.40;99.00
22112;DHT22;11222;50.872;4.312;2023-08-07T10:21:07;23.80;98.40
22112;DHT22;11222;50.872;4.312;2023-08-07T10:23:36;25.80;93.50
22112;DHT22;11222;50.872;4.312;2023-08-07T10:26:06;25.20;90.70
22112;DHT22;11222;50.872;4.312;2023-08-07T10:28:35;23.80;95.30
22112;DHT22;11222;50.872;4.312;2023-08-07T10:31:06;24.00;96.50
22112;DHT22;11222;50.872;4.312;2023-08-07T10:33:33;25.60;94.10
22112;DHT22;11222;50.872;4.312;2023-08-07T10:35:59;27.10;86.90
22112;DHT22;11222;50.872;4.312;2023-08-07T10:43:43;28.10;70.10
22112;DHT22;11222;50.872;4.312;2023-08-07T10:48:54;26.30;76.70
22112;DHT22;11222;50.872;4.312;2023-08-07T10:51:20;25.00;80.90
22112;DHT22;11222;50.872;4.312;2023-08-07T10:53:49;24.70;84.20
22112;DHT22;11222;50.872;4.312;2023-08-07T10:56:30;23.50;93.10
22112;DHT22;11222;50.872;4.312;2023-08-07T10:58:57;22.80;99.90
22112;DHT22;11222;50.872;4.312;2023-08-07T11:04:11;24.30;99.00
22112;DHT22;11222;50.872;4.312;2023-08-07T11:06:39;25.20;93.70
22112;DHT22;11222;50.872;4.312;2023-08-07T11:09:07;24.70;93.50
22112;DHT22;11222;50.872;4.312;2023-08-07T11:11:42;26.30;91.30
22112;DHT22;11222;50.872;4.312;2023-08-07T11:14:09;28.20;84.10
22112;DHT22;11222;50.872;4.312;2023-08-07T11:16:35;28.40;77.60
22112;DHT22;11222;50.872;4.312;2023-08-07T11:19:01;28.70;72.90
22112;DHT22;11222;50.872;4.312;2023-08-07T11:21:27;27.20;75.40
22112;DHT22;11222;50.872;4.312;2023-08-07T11:23:52;24.90;83.60
22112;DHT22;11222;50.872;4.312;2023-08-07T11:26:18;23.70;92.00
22112;DHT22;11222;50.872;4.312;2023-08-07T11:28:47;22.90;99.00
22112;DHT22;11222;50.872;4.312;2023-08-07T11:31:13;22.60;99.90
22112;DHT22;11222;50.872;4.312;2023-08-07T11:33:39;22.80;99.90
22112;DHT22;11222;50.872;4.312;2023-08-07T11:36:15;24.50;95.80
22112;DHT22;11222;50.872;4.312;2023-08-07T11:38:41;23.40;97.10
22112;DHT22;11222;50.872;4.312;2023-08-07T11:41:11;22.80;99.90
22112;DHT22;11222;50.872;4.312;2023-08-07T11:43:38;22.50;99.90
22112;DHT22;11222;50.872;4.312;2023-08-07T11:46:07;22.10;99.90
22112;DHT22;11222;50.872;4.312;2023-08-07T11:48:36;21.80;99.90
22112;DHT22;11222;50.872;4.312;2023-08-07T11:51:02;21.80;99.90
22112;DHT22;11222;50.872;4.312;2023-08-07T11:53:33;24.20;99.90
22112;DHT22;11222;50.872;4.312;2023-08-07T11:56:00;26.80;91.30
22112;DHT22;11222;50.872;4.312;2023-08-07T11:58:38;25.10;90.50
22112;DHT22;11222;50.872;4.312;2023-08-07T12:01:09;24.20;94.60
22112;DHT22;11222;50.872;4.312;2023-08-07T12:03:37;23.00;99.90
22112;DHT22;11222;50.872;4.312;2023-08-07T12:06:07;22.20;99.90
22112;DHT22;11222;50.872;4.312;2023-08-07T12:08:38;23.00;99.90
22112;DHT22;11222;50.872;4.312;2023-08-07T12:11:12;23.20;99.90
22112;DHT22;11222;50.872;4.312;2023-08-07T12:13:40;23.90;99.90
22112;DHT22;11222;50.872;4.312;2023-08-07T12:16:06;24.30;99.80
22112;DHT22;11222;50.872;4.312;2023-08-07T12:18:32;23.70;99.10
22112;DHT22;11222;50.872;4.312;2023-08-07T12:21:03;23.00;99.90
22112;DHT22;11222;50.872;4.312;2023-08-07T12:23:33;22.90;99.90
22112;DHT22;11222;50.872;4.312;2023-08-07T12:25:59;22.70;99.90
22112;DHT22;11222;50.872;4.312;2023-08-07T12:28:25;22.60;99.90
22112;DHT22;11222;50.872;4.312;2023-08-07T12:30:52;22.50;99.90
22112;DHT22;11222;50.872;4.312;2023-08-07T12:33:18;22.30;99.90
22112;DHT22;11222;50.872;4.312;2023-08-07T12:35:44;22.00;99.90
22112;DHT22;11222;50.872;4.312;2023-08-07T12:38:11;21.70;99.90
22112;DHT22;11222;50.872;4.312;2023-08-07T12:40:39;21.60;99.90
22112;DHT22;11222;50.872;4.312;2023-08-07T12:43:05;21.30;99.90
22112;DHT22;11222;50.872;4.312;2023-08-07T12:45:31;21.10;99.90
22112;DHT22;11222;50.872;4.312;2023-08-07T12:47:57;21.20;99.90
22112;DHT22;11222;50.872;4.312;2023-08-07T12:50:23;21.20;99.90
22112;DHT22;11222;50.872;4.312;2023-08-07T12:52:49;21.40;99.90
22112;DHT22;11222;50.872;4.312;2023-08-07T12:55:14;21.60;99.90
22112;DHT22;11222;50.872;4.312;2023-08-07T12:57:41;21.90;99.90
22112;DHT22;11222;50.872;4.312;2023-08-07T13:00:11;21.70;99.90
22112;DHT22;11222;50.872;4.312;2023-08-07T13:02:45;21.80;99.90
22112;DHT22;11222;50.872;4.312;2023-08-07T13:05:12;21.90;99.90
22112;DHT22;11222;50.872;4.312;2023-08-07T13:07:39;21.80;99.90
22112;DHT22;11222;50.872;4.312;2023-08-07T13:10:05;21.30;99.90
22112;DHT22;11222;50.872;4.312;2023-08-07T13:12:37;21.10;99.90
22112;DHT22;11222;50.872;4.312;2023-08-07T13:15:04;20.80;99.90
22112;DHT22;11222;50.872;4.312;2023-08-07T13:17:33;20.90;99.90
22112;DHT22;11222;50.872;4.312;2023-08-07T13:20:00;21.20;99.90
22112;DHT22;11222;50.872;4.312;2023-08-07T13:22:44;21.30;99.90
22112;DHT22;11222;50.872;4.312;2023-08-07T13:25:12;21.40;99.90
22112;DHT22;11222;50.872;4.312;2023-08-07T13:27:38;21.70;99.90
22112;DHT22;11222;50.872;4.312;2023-08-07T13:30:04;22.00;99.90
22112;DHT22;11222;50.872;4.312;2023-08-07T13:32:30;22.00;99.90
22112;DHT22;11222;50.872;4.312;2023-08-07T13:34:57;22.00;99.90
22112;DHT22;11222;50.872;4.312;2023-08-07T13:37:23;22.00;99.90
22112;DHT22;11222;50.872;4.312;2023-08-07T13:39:48;22.10;99.90
22112;DHT22;11222;50.872;4.312;2023-08-07T13:42:17;22.10;99.90
22112;DHT22;11222;50.872;4.312;2023-08-07T13:44:43;22.00;99.90
22112;DHT22;11222;50.872;4.312;2023-08-07T13:47:09;21.70;99.90
22112;DHT22;11222;50.872;4.312;2023-08-07T13:49:37;21.60;99.90
22112;DHT22;11222;50.872;4.312;2023-08-07T13:52:04;21.50;99.90
22112;DHT22;11222;50.872;4.312;2023-08-07T13:54:29;21.40;99.90
22112;DHT22;11222;50.872;4.312;2023-08-07T13:56:55;21.40;99.90
22112;DHT22;11222;50.872;4.312;2023-08-07T13:59:21;21.70;99.90
22112;DHT22;11222;50.872;4.312;2023-08-07T14:01:46;21.90;99.90
22112;DHT22;11222;50.872;4.312;2023-08-07T14:04:12;21.80;99.90
22112;DHT22;11222;50.872;4.312;2023-08-07T14:06:40;22.00;99.90
22112;DHT22;11222;50.872;4.312;2023-08-07T14:09:07;21.90;99.90
22112;DHT22;11222;50.872;4.312;2023-08-07T14:11:35;22.00;99.90
22112;DHT22;11222;50.872;4.312;2023-08-07T14:14:00;21.90;99.90
22112;DHT22;11222;50.872;4.312;2023-08-07T14:16:26;22.00;99.90
22112;DHT22;11222;50.872;4.312;2023-08-07T14:18:52;21.80;99.90
22112;DHT22;11222;50.872;4.312;2023-08-07T14:21:18;22.00;99.90
22112;DHT22;11222;50.872;4.312;2023-08-07T14:23:44;22.10;99.90
22112;DHT22;11222;50.872;4.312;2023-08-07T14:26:14;22.10;99.90
22112;DHT22;11222;50.872;4.312;2023-08-07T14:28:41;22.30;99.90
22112;DHT22;11222;50.872;4.312;2023-08-07T14:31:08;22.30;99.90
22112;DHT22;11222;50.872;4.312;2023-08-07T14:33:34;22.20;99.90
22112;DHT22;11222;50.872;4.312;2023-08-07T14:36:01;21.80;99.90
22112;DHT22;11222;50.872;4.312;2023-08-07T14:38:27;22.00;99.90
22112;DHT22;11222;50.872;4.312;2023-08-07T14:40:54;21.60;99.90
22112;DHT22;11222;50.872;4.312;2023-08-07T14:43:20;21.30;99.90
22112;DHT22;11222;50.872;4.312;2023-08-07T14:45:45;21.50;99.90
22112;DHT22;11222;50.872;4.312;2023-08-07T14:48:12;21.60;99.90
22112;DHT22;11222;50.872;4.312;2023-08-07T14:50:38;21.90;99.90
22112;DHT22;11222;50.872;4.312;2023-08-07T14:53:03;22.00;99.90
22112;DHT22;11222;50.872;4.312;2023-08-07T14:55:29;21.90;99.90
22112;DHT22;11222;50.872;4.312;2023-08-07T14:57:55;21.80;99.90
22112;DHT22;11222;50.872;4.312;2023-08-07T15:00:20;22.10;99.90
22112;DHT22;11222;50.872;4.312;2023-08-07T15:02:46;22.10;99.90
22112;DHT22;11222;50.872;4.312;2023-08-07T15:05:14;22.00;99.90
22112;DHT22;11222;50.872;4.312;2023-08-07T15:07:39;21.60;99.90
22112;DHT22;11222;50.872;4.312;2023-08-07T15:10:08;21.40;99.90
22112;DHT22;11222;50.872;4.312;2023-08-07T15:12:34;21.40;99.90
22112;DHT22;11222;50.872;4.312;2023-08-07T15:15:00;21.40;99.90
22112;DHT22;11222;50.872;4.312;2023-08-07T15:17:26;21.50;99.90
22112;DHT22;11222;50.872;4.312;2023-08-07T15:19:51;21.70;99.90
22112;DHT22;11222;50.872;4.312;2023-08-07T15:22:17;21.60;99.90
22112;DHT22;11222;50.872;4.312;2023-08-07T15:24:43;21.50;99.90
22112;DHT22;11222;50.872;4.312;2023-08-07T15:27:09;21.50;99.90
22112;DHT22;11222;50.872;4.312;2023-08-07T15:29:35;21.30;99.90
22112;DHT22;11222;50.872;4.312;2023-08-07T15:32:00;21.10;99.90
22112;DHT22;11222;50.872;4.312;2023-08-07T15:34:26;20.90;99.90
22112;DHT22;11222;50.872;4.312;2023-08-07T15:36:51;20.90;99.90
22112;DHT22;11222;50.872;4.312;2023-08-07T15:39:17;21.00;99.90